< < Back
Terminal Aerodrome Forecast


Current Version              Previous Versions:   1  2  3  4  5  6  7  8  9  

Terminal Aerodrome Forecast

459
FTUS42 KGSP 010520
TAFGSP
TAF
KGSP 010520Z 0106/0206 23004KT P6SM SCT060
      TEMPO 0106/0108 22009KT FEW080
     FM011700 24008KT P6SM SCT060
     FM011900 24010G18KT P6SM BKN060 PROB30 0119/0123 4SM TSRA
      BKN040CB
     FM020000 26008KT P6SM BKN060
     FM020300 25004KT P6SM BKN060=



Latest METAR

977
SAUS70 KWBC 020800 RRF
MTRGSP
METAR KGSP 020753Z AUTO 24007KT 10SM OVC095 22/18 A2996 RMK AO2 SLP134
T02170183


USA.gov is the U.S. government's official web portal to all federal, state and local government web resources and services.